createdAt,value
2019-05-29T00:00:43.442Z,1008.99
2019-05-29T00:01:43.421Z,1009.02
2019-05-29T00:02:43.412Z,1008.96
2019-05-29T00:03:43.396Z,1009.02
2019-05-29T00:04:43.442Z,1009.00
2019-05-29T00:05:43.376Z,1009.06
2019-05-29T00:06:43.360Z,1009.06
2019-05-29T00:07:43.485Z,1009.09
2019-05-29T00:08:43.346Z,1009.06
2019-05-29T00:09:43.328Z,1009.09
2019-05-29T00:10:43.317Z,1009.07
2019-05-29T00:11:43.307Z,1009.07
2019-05-29T00:12:43.293Z,1009.05
2019-05-29T00:13:43.332Z,1009.10
2019-05-29T00:14:43.277Z,1009.12
2019-05-29T00:15:43.260Z,1009.12
2019-05-29T00:16:43.295Z,1009.17
2019-05-29T00:17:43.237Z,1009.18
2019-05-29T00:18:43.478Z,1009.15
2019-05-29T00:19:43.227Z,1009.16
2019-05-29T00:20:43.206Z,1009.25
2019-05-29T00:21:43.192Z,1009.26
2019-05-29T00:22:43.181Z,1009.21
2019-05-29T00:23:43.170Z,1009.28
2019-05-29T00:24:43.209Z,1009.28
2019-05-29T00:25:43.151Z,1009.25
2019-05-29T00:26:43.136Z,1009.30
2019-05-29T00:27:43.126Z,1009.32
2019-05-29T00:28:43.113Z,1009.32
2019-05-29T00:29:43.157Z,1009.32
2019-05-29T00:30:43.090Z,1009.33
2019-05-29T00:31:43.084Z,1009.39
2019-05-29T00:32:43.095Z,1009.43
2019-05-29T00:33:43.064Z,1009.35
2019-05-29T00:34:43.045Z,1009.39
2019-05-29T00:35:43.083Z,1009.41
2019-05-29T00:36:43.282Z,1009.42
2019-05-29T00:37:43.011Z,1009.42
2019-05-29T00:38:42.999Z,1009.39
2019-05-29T00:39:42.990Z,1009.41
2019-05-29T00:40:42.977Z,1009.39
2019-05-29T00:41:43.017Z,1009.38
2019-05-29T00:42:43.009Z,1009.37
2019-05-29T00:43:42.944Z,1009.39
2019-05-29T00:44:42.932Z,1009.38
2019-05-29T00:45:42.919Z,1009.40
2019-05-29T00:46:42.907Z,1009.39
2019-05-29T00:47:42.900Z,1009.37
2019-05-29T00:48:42.929Z,1009.37
2019-05-29T00:49:42.877Z,1009.33
2019-05-29T00:50:42.915Z,1009.37
2019-05-29T00:51:42.851Z,1009.41
2019-05-29T00:52:42.841Z,1009.40
2019-05-29T00:53:42.832Z,1009.44
2019-05-29T00:54:42.820Z,1009.43
2019-05-29T00:55:42.865Z,1009.45
2019-05-29T00:56:42.795Z,1009.51
2019-05-29T00:57:42.836Z,1009.52
2019-05-29T00:58:42.772Z,1009.50
2019-05-29T00:59:42.762Z,1009.52
2019-05-29T01:00:42.749Z,1009.51
2019-05-29T01:01:42.738Z,1009.59
2019-05-29T01:02:42.791Z,1009.58
2019-05-29T01:03:42.766Z,1009.56
2019-05-29T01:04:42.726Z,1009.59
2019-05-29T01:05:42.697Z,1009.62
2019-05-29T01:06:42.683Z,1009.60
2019-05-29T01:07:42.670Z,1009.59
2019-05-29T01:08:42.658Z,1009.63
2019-05-29T01:09:42.693Z,1009.61
2019-05-29T01:10:42.636Z,1009.67
2019-05-29T01:11:42.641Z,1009.66
2019-05-29T01:12:42.655Z,1009.62
2019-05-29T01:13:42.602Z,1009.72
2019-05-29T01:14:50.082Z,1009.70
2019-05-29T01:15:43.578Z,1009.66
2019-05-29T01:16:42.568Z,1009.67
2019-05-29T01:17:42.604Z,1009.65
2019-05-29T01:18:42.544Z,1009.72
2019-05-29T01:19:42.533Z,1009.70
2019-05-29T01:20:42.523Z,1009.71
2019-05-29T01:21:42.538Z,1009.70
2019-05-29T01:22:42.499Z,1009.72
2019-05-29T01:23:42.538Z,1009.75
2019-05-29T01:24:42.475Z,1009.79
2019-05-29T01:25:42.471Z,1009.76
2019-05-29T01:26:42.460Z,1009.79
2019-05-29T01:27:42.484Z,1009.82
2019-05-29T01:28:42.436Z,1009.82
2019-05-29T01:29:42.420Z,1009.87
2019-05-29T01:30:42.407Z,1009.91
2019-05-29T01:31:42.395Z,1009.87
2019-05-29T01:32:42.431Z,1009.86
2019-05-29T01:33:42.377Z,1009.96
2019-05-29T01:34:42.406Z,1009.97
2019-05-29T01:35:42.402Z,1009.96
2019-05-29T01:36:42.402Z,1009.90
2019-05-29T01:37:42.328Z,1009.94
2019-05-29T01:38:42.316Z,1009.97
2019-05-29T01:39:42.305Z,1009.98
2019-05-29T01:40:42.293Z,1009.97
2019-05-29T01:41:42.282Z,1009.97
2019-05-29T01:42:42.319Z,1009.95
2019-05-29T01:43:42.258Z,1009.95
2019-05-29T01:44:42.251Z,1009.95
2019-05-29T01:45:42.284Z,1009.94
2019-05-29T01:46:42.276Z,1009.98
2019-05-29T01:47:42.216Z,1009.95
2019-05-29T01:48:42.203Z,1009.97
2019-05-29T01:49:42.192Z,1009.99
2019-05-29T01:50:42.204Z,1010.01
2019-05-29T01:51:42.169Z,1010.02
2019-05-29T01:52:42.207Z,1010.06
2019-05-29T01:53:42.145Z,1010.12
2019-05-29T01:54:42.133Z,1010.14
2019-05-29T01:55:42.127Z,1010.13
2019-05-29T01:56:42.161Z,1010.14
2019-05-29T01:57:42.102Z,1010.13
2019-05-29T01:58:42.088Z,1010.16
2019-05-29T01:59:42.127Z,1010.13
2019-05-29T02:00:42.068Z,1010.17
2019-05-29T02:01:42.099Z,1010.22
2019-05-29T02:02:42.044Z,1010.24
2019-05-29T02:03:42.078Z,1010.25
2019-05-29T02:04:42.025Z,1010.24
2019-05-29T02:05:42.015Z,1010.26
2019-05-29T02:06:42.001Z,1010.30
2019-05-29T02:07:41.987Z,1010.30
2019-05-29T02:08:42.025Z,1010.33
2019-05-29T02:09:41.965Z,1010.32
2019-05-29T02:10:41.954Z,1010.35
2019-05-29T02:11:41.984Z,1010.37
2019-05-29T02:12:41.931Z,1010.36
2019-05-29T02:13:41.920Z,1010.38
2019-05-29T02:14:41.911Z,1010.37
2019-05-29T02:15:41.897Z,1010.37
2019-05-29T02:16:41.885Z,1010.36
2019-05-29T02:17:41.916Z,1010.43
2019-05-29T02:18:41.863Z,1010.43
2019-05-29T02:19:41.854Z,1010.45
2019-05-29T02:20:41.882Z,1010.46
2019-05-29T02:21:41.828Z,1010.46
2019-05-29T02:22:41.859Z,1010.45
2019-05-29T02:23:41.808Z,1010.47
2019-05-29T02:24:41.794Z,1010.54
2019-05-29T02:25:41.786Z,1010.49
2019-05-29T02:26:41.773Z,1010.49
2019-05-29T02:27:41.760Z,1010.50
2019-05-29T02:28:41.793Z,1010.54
2019-05-29T02:29:41.789Z,1010.54
2019-05-29T02:30:41.727Z,1010.58
2019-05-29T02:31:41.721Z,1010.53
2019-05-29T02:32:41.703Z,1010.57
2019-05-29T02:33:41.693Z,1010.61
2019-05-29T02:34:41.689Z,1010.63
2019-05-29T02:35:41.712Z,1010.61
2019-05-29T02:36:41.703Z,1010.64
2019-05-29T02:37:41.653Z,1010.69
2019-05-29T02:38:41.636Z,1010.65
2019-05-29T02:39:41.629Z,1010.63
2019-05-29T02:40:41.613Z,1010.63
2019-05-29T02:41:41.642Z,1010.63
2019-05-29T02:42:41.597Z,1010.65
2019-05-29T02:43:41.610Z,1010.69
2019-05-29T02:44:41.576Z,1010.68
2019-05-29T02:45:53.628Z,1010.70
2019-05-29T02:46:42.584Z,1010.69
2019-05-29T02:47:41.533Z,1010.70
2019-05-29T02:48:41.563Z,1010.65
2019-05-29T02:49:41.509Z,1010.73
2019-05-29T02:50:41.497Z,1010.71
2019-05-29T02:51:41.491Z,1010.73
2019-05-29T02:52:41.476Z,1010.73
2019-05-29T02:53:41.467Z,1010.77
2019-05-29T02:54:41.493Z,1010.77
2019-05-29T02:55:41.441Z,1010.82
2019-05-29T02:56:42.573Z,1010.84
2019-05-29T02:57:41.418Z,1010.83
2019-05-29T02:58:41.453Z,1010.86
2019-05-29T02:59:41.395Z,1010.92
2019-05-29T03:00:41.386Z,1010.90
2019-05-29T03:01:41.380Z,1010.96
2019-05-29T03:02:41.404Z,1010.95
2019-05-29T03:03:41.353Z,1010.94
2019-05-29T03:04:41.338Z,1010.96
2019-05-29T03:05:41.337Z,1011.00
2019-05-29T03:06:41.317Z,1010.99
2019-05-29T03:07:41.306Z,1010.97
2019-05-29T03:08:41.332Z,1011.03
2019-05-29T03:09:41.287Z,1011.00
2019-05-29T03:10:41.270Z,1011.04
2019-05-29T03:11:41.323Z,1011.05
2019-05-29T03:12:41.252Z,1011.09
2019-05-29T03:13:41.245Z,1011.11
2019-05-29T03:14:41.267Z,1011.11
2019-05-29T03:15:41.215Z,1011.16
2019-05-29T03:16:41.206Z,1011.15
2019-05-29T03:17:41.193Z,1011.17
2019-05-29T03:18:41.180Z,1011.16
2019-05-29T03:19:41.211Z,1011.23
2019-05-29T03:20:41.158Z,1011.21
2019-05-29T03:21:41.145Z,1011.23
2019-05-29T03:22:41.135Z,1011.28
2019-05-29T03:23:41.127Z,1011.26
2019-05-29T03:24:41.158Z,1011.24
2019-05-29T03:25:41.103Z,1011.27
2019-05-29T03:26:41.092Z,1011.25
2019-05-29T03:27:41.127Z,1011.28
2019-05-29T03:28:41.107Z,1011.30
2019-05-29T03:29:41.094Z,1011.32
2019-05-29T03:30:45.778Z,1011.36
2019-05-29T03:31:47.189Z,1011.31
2019-05-29T03:32:47.576Z,1011.34
2019-05-29T03:33:49.168Z,1011.34
2019-05-29T03:34:46.726Z,1011.37
2019-05-29T03:35:47.678Z,1011.35
2019-05-29T03:36:47.886Z,1011.35
2019-05-29T03:37:41.963Z,1011.37
2019-05-29T03:38:40.963Z,1011.36
2019-05-29T03:39:40.985Z,1011.39
2019-05-29T03:40:40.936Z,1011.42
2019-05-29T03:41:40.959Z,1011.43
2019-05-29T03:42:40.909Z,1011.42
2019-05-29T03:43:40.937Z,1011.46
2019-05-29T03:44:40.889Z,1011.49
2019-05-29T03:45:40.916Z,1011.46
2019-05-29T03:46:45.711Z,1011.47
2019-05-29T03:47:41.866Z,1011.51
2019-05-29T03:48:40.879Z,1011.51
2019-05-29T03:49:40.840Z,1011.50
2019-05-29T03:50:40.880Z,1011.51
2019-05-29T03:51:40.813Z,1011.51
2019-05-29T03:52:40.804Z,1011.54
2019-05-29T03:53:40.831Z,1011.52
2019-05-29T03:54:40.781Z,1011.51
2019-05-29T03:55:40.762Z,1011.54
2019-05-29T03:56:40.763Z,1011.53
2019-05-29T03:57:40.737Z,1011.52
2019-05-29T03:58:40.766Z,1011.55
2019-05-29T03:59:40.760Z,1011.52
2019-05-29T04:00:45.895Z,1011.53
2019-05-29T04:01:41.692Z,1011.53
2019-05-29T04:02:40.682Z,1011.55
2019-05-29T04:03:40.723Z,1011.58
2019-05-29T04:04:40.666Z,1011.56
2019-05-29T04:05:40.649Z,1011.58
2019-05-29T04:06:40.638Z,1011.62
2019-05-29T04:07:40.624Z,1011.61
2019-05-29T04:08:40.615Z,1011.64
2019-05-29T04:09:40.642Z,1011.65
2019-05-29T04:10:40.631Z,1011.67
2019-05-29T04:11:40.580Z,1011.67
2019-05-29T04:12:40.589Z,1011.67
2019-05-29T04:13:40.602Z,1011.63
2019-05-29T04:14:40.549Z,1011.68
2019-05-29T04:15:40.538Z,1011.66
2019-05-29T04:16:58.534Z,1011.67
2019-05-29T04:17:41.510Z,1011.72
2019-05-29T04:18:40.500Z,1011.73
2019-05-29T04:19:40.533Z,1011.74
2019-05-29T04:20:40.480Z,1011.78
2019-05-29T04:21:40.463Z,1011.79
2019-05-29T04:22:40.454Z,1011.83
2019-05-29T04:23:40.450Z,1011.84
2019-05-29T04:24:40.433Z,1011.86
2019-05-29T04:25:43.077Z,1011.85
2019-05-29T04:26:40.408Z,1011.87
2019-05-29T04:27:40.439Z,1011.93
2019-05-29T04:28:40.391Z,1011.93
2019-05-29T04:29:40.376Z,1011.96
2019-05-29T04:30:40.366Z,1011.99
2019-05-29T04:31:40.352Z,1011.96
2019-05-29T04:32:40.379Z,1012.05
2019-05-29T04:33:40.386Z,1012.03
2019-05-29T04:34:40.321Z,1012.03
2019-05-29T04:35:40.347Z,1012.07
2019-05-29T04:36:40.296Z,1012.08
2019-05-29T04:37:40.357Z,1012.05
2019-05-29T04:38:40.564Z,1012.10
2019-05-29T04:39:40.265Z,1012.09
2019-05-29T04:40:40.296Z,1012.11
2019-05-29T04:41:40.243Z,1012.08
2019-05-29T04:42:40.366Z,1012.14
2019-05-29T04:43:40.216Z,1012.17
2019-05-29T04:44:41.127Z,1012.18
2019-05-29T04:45:40.353Z,1012.20
2019-05-29T04:46:40.681Z,1012.26
2019-05-29T04:47:40.170Z,1012.23
2019-05-29T04:48:40.577Z,1012.27
2019-05-29T04:49:40.191Z,1012.32
2019-05-29T04:50:40.800Z,1012.32
2019-05-29T04:51:40.180Z,1012.34
2019-05-29T04:52:40.556Z,1012.35
2019-05-29T04:53:40.182Z,1012.37
2019-05-29T04:54:40.350Z,1012.36
2019-05-29T04:55:40.078Z,1012.37
2019-05-29T04:56:40.074Z,1012.42
2019-05-29T04:57:40.096Z,1012.46
2019-05-29T04:58:40.045Z,1012.46
2019-05-29T04:59:40.035Z,1012.48
2019-05-29T05:00:40.025Z,1012.51
2019-05-29T05:01:40.022Z,1012.52
2019-05-29T05:02:40.051Z,1012.50
2019-05-29T05:03:40.035Z,1012.56
2019-05-29T05:04:39.980Z,1012.57
2019-05-29T05:05:39.970Z,1012.59
2019-05-29T05:06:39.957Z,1012.57
2019-05-29T05:07:39.959Z,1012.58
2019-05-29T05:08:40.309Z,1012.62
2019-05-29T05:09:39.962Z,1012.66
2019-05-29T05:10:41.026Z,1012.62
2019-05-29T05:11:39.908Z,1012.62
2019-05-29T05:12:40.249Z,1012.64
2019-05-29T05:13:39.881Z,1012.63
2019-05-29T05:14:39.924Z,1012.67
2019-05-29T05:15:40.219Z,1012.69
2019-05-29T05:16:40.066Z,1012.69
2019-05-29T05:17:40.200Z,1012.68
2019-05-29T05:18:40.344Z,1012.75
2019-05-29T05:19:40.138Z,1012.71
2019-05-29T05:20:40.412Z,1012.67
2019-05-29T05:21:40.274Z,1012.68
2019-05-29T05:22:40.940Z,1012.73
2019-05-29T05:23:40.538Z,1012.71
2019-05-29T05:24:43.503Z,1012.74
2019-05-29T05:25:40.999Z,1012.73
2019-05-29T05:26:40.479Z,1012.70
2019-05-29T05:27:40.635Z,1012.71
2019-05-29T05:28:43.534Z,1012.74
2019-05-29T05:29:41.436Z,1012.75
2019-05-29T05:30:40.818Z,1012.76
2019-05-29T05:31:40.843Z,1012.78
2019-05-29T05:32:40.959Z,1012.76
2019-05-29T05:33:40.587Z,1012.78
2019-05-29T05:34:40.904Z,1012.81
2019-05-29T05:35:41.111Z,1012.80
2019-05-29T05:36:40.889Z,1012.82
2019-05-29T05:37:40.944Z,1012.82
2019-05-29T05:38:40.875Z,1012.82
2019-05-29T05:39:41.092Z,1012.86
2019-05-29T05:40:43.048Z,1012.90
2019-05-29T05:41:39.614Z,1012.85
2019-05-29T05:42:39.588Z,1012.87
2019-05-29T05:43:39.536Z,1012.87
2019-05-29T05:44:39.544Z,1012.88
2019-05-29T05:45:39.538Z,1012.87
2019-05-29T05:46:39.506Z,1012.89
2019-05-29T05:47:53.593Z,1012.94
2019-05-29T05:48:41.517Z,1012.87
2019-05-29T05:49:39.618Z,1012.89
2019-05-29T05:50:39.515Z,1012.88
2019-05-29T05:51:42.800Z,1012.93
2019-05-29T05:52:41.532Z,1012.92
2019-05-29T05:53:39.543Z,1012.94
2019-05-29T05:54:39.602Z,1013.00
2019-05-29T05:55:39.806Z,1012.95
2019-05-29T05:56:39.733Z,1012.96
2019-05-29T05:57:39.723Z,1012.95
2019-05-29T05:58:39.945Z,1012.94
2019-05-29T05:59:39.889Z,1012.95
2019-05-29T06:00:39.923Z,1012.94
2019-05-29T06:01:40.059Z,1012.91
2019-05-29T06:02:40.115Z,1012.98
2019-05-29T06:03:40.611Z,1012.96
2019-05-29T06:04:40.046Z,1012.98
2019-05-29T06:05:40.233Z,1012.99
2019-05-29T06:06:40.268Z,1012.98
2019-05-29T06:07:40.437Z,1012.97
2019-05-29T06:08:40.214Z,1013.00
2019-05-29T06:09:40.436Z,1013.00
2019-05-29T06:10:40.257Z,1013.01
2019-05-29T06:11:40.316Z,1012.98
2019-05-29T06:12:40.494Z,1013.00
2019-05-29T06:13:40.413Z,1013.05
2019-05-29T06:14:40.565Z,1013.09
2019-05-29T06:15:40.543Z,1013.09
2019-05-29T06:16:40.620Z,1013.08
2019-05-29T06:17:39.158Z,1013.13
2019-05-29T06:18:39.207Z,1013.12
2019-05-29T06:19:39.125Z,1013.12
2019-05-29T06:20:39.224Z,1013.09
2019-05-29T06:21:39.110Z,1013.10
2019-05-29T06:22:39.285Z,1013.07
2019-05-29T06:23:39.194Z,1013.12
2019-05-29T06:24:39.083Z,1013.10
2019-05-29T06:25:40.725Z,1013.15
2019-05-29T06:26:39.122Z,1013.13
2019-05-29T06:27:39.324Z,1013.14
2019-05-29T06:28:39.196Z,1013.18
2019-05-29T06:29:39.381Z,1013.20
2019-05-29T06:30:41.289Z,1013.21
2019-05-29T06:31:39.433Z,1013.19
2019-05-29T06:32:39.445Z,1013.23
2019-05-29T06:33:39.482Z,1013.21
2019-05-29T06:34:39.571Z,1013.26
2019-05-29T06:35:39.635Z,1013.22
2019-05-29T06:36:39.608Z,1013.28
2019-05-29T06:37:39.584Z,1013.22
2019-05-29T06:38:40.440Z,1013.23
2019-05-29T06:39:39.647Z,1013.26
2019-05-29T06:40:40.177Z,1013.25
2019-05-29T06:41:40.142Z,1013.30
2019-05-29T06:42:39.866Z,1013.33
2019-05-29T06:43:39.891Z,1013.31
2019-05-29T06:44:39.834Z,1013.30
2019-05-29T06:45:39.952Z,1013.33
2019-05-29T06:46:40.294Z,1013.35
2019-05-29T06:47:40.629Z,1013.34
2019-05-29T06:48:46.159Z,1013.34
2019-05-29T06:49:40.123Z,1013.29
2019-05-29T06:50:39.443Z,1013.32
2019-05-29T06:51:39.315Z,1013.32
2019-05-29T06:52:39.494Z,1013.29
2019-05-29T06:53:39.812Z,1013.33
2019-05-29T06:54:39.997Z,1013.35
2019-05-29T06:55:39.860Z,1013.36
2019-05-29T06:56:39.717Z,1013.32
2019-05-29T06:57:40.129Z,1013.31
2019-05-29T06:58:39.926Z,1013.37
2019-05-29T06:59:38.715Z,1013.32
2019-05-29T07:00:39.391Z,1013.32
2019-05-29T07:01:39.448Z,1013.33
2019-05-29T07:02:38.654Z,1013.28
2019-05-29T07:03:39.692Z,1013.33
2019-05-29T07:04:38.635Z,1013.33
2019-05-29T07:05:39.802Z,1013.34
2019-05-29T07:06:40.590Z,1013.36
2019-05-29T07:07:40.181Z,1013.31
2019-05-29T07:08:44.028Z,1013.37
2019-05-29T07:09:39.596Z,1013.34
2019-05-29T07:10:38.638Z,1013.33
2019-05-29T07:11:39.060Z,1013.38
2019-05-29T07:12:38.524Z,1013.40
2019-05-29T07:13:41.873Z,1013.38
2019-05-29T07:14:40.271Z,1013.38
2019-05-29T07:15:38.704Z,1013.43
2019-05-29T07:16:45.357Z,1013.44
2019-05-29T07:17:40.446Z,1013.44
2019-05-29T07:18:38.636Z,1013.44
2019-05-29T07:19:48.954Z,1013.48
2019-05-29T07:20:40.593Z,1013.47
2019-05-29T07:21:38.865Z,1013.48
2019-05-29T07:22:38.971Z,1013.50
2019-05-29T07:23:38.775Z,1013.47
2019-05-29T07:24:38.827Z,1013.54
2019-05-29T07:25:38.783Z,1013.51
2019-05-29T07:26:38.894Z,1013.48
2019-05-29T07:27:38.829Z,1013.49
2019-05-29T07:28:46.849Z,1013.53
2019-05-29T07:29:39.344Z,1013.51
2019-05-29T07:30:39.150Z,1013.53
2019-05-29T07:31:38.840Z,1013.53
2019-05-29T07:32:40.444Z,1013.54
2019-05-29T07:33:39.000Z,1013.59
2019-05-29T07:34:53.684Z,1013.53
2019-05-29T07:35:39.354Z,1013.55
2019-05-29T07:36:39.778Z,1013.61
2019-05-29T07:37:39.555Z,1013.52
2019-05-29T07:38:39.561Z,1013.58
2019-05-29T07:39:39.376Z,1013.61
2019-05-29T07:40:38.499Z,1013.61
2019-05-29T07:41:39.471Z,1013.60
2019-05-29T07:42:40.161Z,1013.63
2019-05-29T07:43:39.689Z,1013.56
2019-05-29T07:44:38.160Z,1013.65
2019-05-29T07:45:38.167Z,1013.58
2019-05-29T07:46:38.153Z,1013.62
2019-05-29T07:47:38.413Z,1013.62
2019-05-29T07:48:38.483Z,1013.62
2019-05-29T07:50:34.309Z,1013.66
2019-05-29T07:50:40.088Z,1013.65
2019-05-29T07:51:38.252Z,1013.63
2019-05-29T07:52:38.638Z,1013.69
2019-05-29T07:53:38.266Z,1013.64
2019-05-29T07:54:39.841Z,1013.63
2019-05-29T07:55:38.402Z,1013.63
2019-05-29T07:56:38.360Z,1013.64
2019-05-29T07:57:38.828Z,1013.67
2019-05-29T07:58:38.710Z,1013.65
2019-05-29T07:59:38.568Z,1013.68
2019-05-29T08:01:00.992Z,1013.67
2019-05-29T08:01:38.974Z,1013.67
2019-05-29T08:02:39.321Z,1013.71
2019-05-29T08:03:39.219Z,1013.64
2019-05-29T08:04:38.892Z,1013.64
2019-05-29T08:05:39.183Z,1013.61
2019-05-29T08:06:38.952Z,1013.64
2019-05-29T08:07:39.348Z,1013.67
2019-05-29T08:08:39.097Z,1013.63
2019-05-29T08:09:39.227Z,1013.68
2019-05-29T08:10:39.819Z,1013.68
2019-05-29T08:11:37.886Z,1013.64
2019-05-29T08:12:41.657Z,1013.68
2019-05-29T08:13:39.486Z,1013.68
2019-05-29T08:14:37.839Z,1013.67
2019-05-29T08:15:52.108Z,1013.66
2019-05-29T08:16:39.762Z,1013.71
2019-05-29T08:17:37.792Z,1013.65
2019-05-29T08:18:37.803Z,1013.71
2019-05-29T08:19:37.770Z,1013.68
2019-05-29T08:20:37.769Z,1013.79
2019-05-29T08:21:37.798Z,1013.77
2019-05-29T08:22:37.733Z,1013.80
2019-05-29T08:23:37.774Z,1013.77
2019-05-29T08:24:37.735Z,1013.79
2019-05-29T08:25:37.703Z,1013.81
2019-05-29T08:26:37.696Z,1013.79
2019-05-29T08:27:37.738Z,1013.77
2019-05-29T08:28:37.684Z,1013.78
2019-05-29T08:29:37.695Z,1013.83
2019-05-29T08:30:37.690Z,1013.84
2019-05-29T08:31:37.637Z,1013.78
2019-05-29T08:32:37.887Z,1013.80
2019-05-29T08:33:37.669Z,1013.78
2019-05-29T08:34:37.645Z,1013.77
2019-05-29T08:35:37.599Z,1013.73
2019-05-29T08:36:37.753Z,1013.78
2019-05-29T08:37:37.595Z,1013.74
2019-05-29T08:38:37.616Z,1013.75
2019-05-29T08:39:37.598Z,1013.69
2019-05-29T08:40:37.552Z,1013.78
2019-05-29T08:41:37.525Z,1013.73
2019-05-29T08:42:37.541Z,1013.78
2019-05-29T08:43:37.528Z,1013.78
2019-05-29T08:44:37.490Z,1013.74
2019-05-29T08:45:37.538Z,1013.83
2019-05-29T08:46:37.555Z,1013.80
2019-05-29T08:47:37.571Z,1013.79
2019-05-29T08:48:37.461Z,1013.81
2019-05-29T08:49:37.519Z,1013.82
2019-05-29T08:50:37.429Z,1013.78
2019-05-29T08:51:37.411Z,1013.76
2019-05-29T08:52:37.497Z,1013.78
2019-05-29T08:53:37.404Z,1013.80
2019-05-29T08:54:37.451Z,1013.82
2019-05-29T08:55:37.439Z,1013.79
2019-05-29T08:56:37.398Z,1013.80
2019-05-29T08:57:37.427Z,1013.74
2019-05-29T08:58:38.169Z,1013.80
2019-05-29T08:59:37.323Z,1013.80
2019-05-29T09:00:37.366Z,1013.76
2019-05-29T09:01:37.305Z,1013.80
2019-05-29T09:02:37.319Z,1013.82
2019-05-29T09:03:37.358Z,1013.84
2019-05-29T09:04:37.346Z,1013.84
2019-05-29T09:05:37.252Z,1013.87
2019-05-29T09:06:37.293Z,1013.89
2019-05-29T09:07:37.266Z,1013.84
2019-05-29T09:08:37.221Z,1013.86
2019-05-29T09:09:37.247Z,1013.81
2019-05-29T09:10:37.275Z,1013.81
2019-05-29T09:11:37.194Z,1013.81
2019-05-29T09:12:37.182Z,1013.82
2019-05-29T09:13:37.179Z,1013.81
2019-05-29T09:14:37.233Z,1013.81
2019-05-29T09:15:37.145Z,1013.82
2019-05-29T09:16:37.133Z,1013.82
2019-05-29T09:17:37.137Z,1013.80
2019-05-29T09:18:37.152Z,1013.84
2019-05-29T09:19:37.100Z,1013.84
2019-05-29T09:21:00.894Z,1013.86
2019-05-29T09:21:38.089Z,1013.86
2019-05-29T09:22:37.069Z,1013.83
2019-05-29T09:23:37.073Z,1013.82
2019-05-29T09:24:37.048Z,1013.83
2019-05-29T09:25:37.119Z,1013.81
2019-05-29T09:26:37.021Z,1013.82
2019-05-29T09:27:37.041Z,1013.80
2019-05-29T09:28:37.006Z,1013.86
2019-05-29T09:29:37.022Z,1013.79
2019-05-29T09:30:36.974Z,1013.78
2019-05-29T09:31:37.012Z,1013.76
2019-05-29T09:32:49.551Z,1013.80
2019-05-29T09:33:37.942Z,1013.79
2019-05-29T09:34:36.953Z,1013.83
2019-05-29T09:35:36.922Z,1013.76
2019-05-29T09:36:36.958Z,1013.86
2019-05-29T09:37:36.924Z,1013.76
2019-05-29T09:38:37.003Z,1013.80
2019-05-29T09:39:36.873Z,1013.77
2019-05-29T09:40:36.903Z,1013.80
2019-05-29T09:41:36.916Z,1013.80
2019-05-29T09:42:36.890Z,1013.84
2019-05-29T09:43:36.834Z,1013.86
2019-05-29T09:44:39.299Z,1013.77
2019-05-29T09:45:36.826Z,1013.86
2019-05-29T09:46:36.798Z,1013.87
2019-05-29T09:47:36.924Z,1013.88
2019-05-29T09:48:49.232Z,1013.89
2019-05-29T09:49:37.762Z,1013.84
2019-05-29T09:50:49.547Z,1013.81
2019-05-29T09:51:37.772Z,1013.83
2019-05-29T09:52:36.790Z,1013.86
2019-05-29T09:53:36.731Z,1013.81
2019-05-29T09:54:36.885Z,1013.87
2019-05-29T09:55:36.799Z,1013.88
2019-05-29T09:56:36.688Z,1013.84
2019-05-29T09:57:36.947Z,1013.87
2019-05-29T09:58:36.662Z,1013.92
2019-05-29T09:59:36.782Z,1013.92
2019-05-29T10:00:36.647Z,1013.89
2019-05-29T10:01:37.406Z,1013.93
2019-05-29T10:02:36.921Z,1013.94
2019-05-29T10:03:36.602Z,1013.91
2019-05-29T10:04:36.612Z,1013.90
2019-05-29T10:05:36.584Z,1013.93
2019-05-29T10:06:36.577Z,1013.89
2019-05-29T10:07:36.619Z,1013.94
2019-05-29T10:08:36.624Z,1013.95
2019-05-29T10:09:36.552Z,1013.92
2019-05-29T10:10:36.552Z,1013.95
2019-05-29T10:11:36.546Z,1013.90
2019-05-29T10:12:36.514Z,1013.90
2019-05-29T10:13:36.530Z,1013.87
2019-05-29T10:14:36.604Z,1013.89
2019-05-29T10:15:36.512Z,1014.00
2019-05-29T10:16:36.488Z,1013.94
2019-05-29T10:17:47.975Z,1013.93
2019-05-29T10:18:37.465Z,1013.91
2019-05-29T10:19:36.451Z,1013.94
2019-05-29T10:20:36.435Z,1013.95
2019-05-29T10:21:40.543Z,1013.97
2019-05-29T10:22:36.512Z,1013.96
2019-05-29T10:23:36.434Z,1013.89
2019-05-29T10:24:36.394Z,1013.86
2019-05-29T10:25:36.504Z,1013.86
2019-05-29T10:26:36.399Z,1013.84
2019-05-29T10:27:36.343Z,1013.89
2019-05-29T10:28:50.359Z,1013.91
2019-05-29T10:29:37.329Z,1013.94
2019-05-29T10:30:36.349Z,1013.96
2019-05-29T10:31:36.309Z,1014.00
2019-05-29T10:32:36.351Z,1013.98
2019-05-29T10:33:36.274Z,1014.02
2019-05-29T10:34:36.283Z,1013.99
2019-05-29T10:35:36.248Z,1013.98
2019-05-29T10:36:36.316Z,1013.97
2019-05-29T10:37:36.245Z,1013.99
2019-05-29T10:38:36.251Z,1013.99
2019-05-29T10:39:36.208Z,1014.04
2019-05-29T10:40:36.256Z,1013.96
2019-05-29T10:41:36.179Z,1013.97
2019-05-29T10:42:36.203Z,1013.95
2019-05-29T10:43:36.197Z,1013.93
2019-05-29T10:44:36.227Z,1013.94
2019-05-29T10:45:36.154Z,1013.93
2019-05-29T10:46:36.136Z,1013.98
2019-05-29T10:47:36.855Z,1013.96
2019-05-29T10:48:36.120Z,1014.00
2019-05-29T10:49:36.133Z,1013.99
2019-05-29T10:50:36.081Z,1013.99
2019-05-29T10:51:36.079Z,1013.98
2019-05-29T10:52:36.063Z,1013.94
2019-05-29T10:53:36.098Z,1013.92
2019-05-29T10:54:39.123Z,1013.90
2019-05-29T10:55:36.078Z,1013.93
2019-05-29T10:56:36.101Z,1013.92
2019-05-29T10:57:36.063Z,1013.90
2019-05-29T10:58:48.583Z,1013.93
2019-05-29T10:59:36.982Z,1013.94
2019-05-29T11:00:38.855Z,1013.94
2019-05-29T11:01:35.979Z,1013.94
2019-05-29T11:02:36.032Z,1013.92
2019-05-29T11:03:35.944Z,1013.89
2019-05-29T11:04:36.008Z,1013.91
2019-05-29T11:05:36.001Z,1013.88
2019-05-29T11:06:40.191Z,1013.89
2019-05-29T11:07:36.905Z,1013.90
2019-05-29T11:08:35.887Z,1013.91
2019-05-29T11:09:44.426Z,1013.86
2019-05-29T11:10:36.967Z,1013.87
2019-05-29T11:11:35.888Z,1013.86
2019-05-29T11:12:39.289Z,1013.84
2019-05-29T11:13:35.842Z,1013.82
2019-05-29T11:14:35.872Z,1013.81
2019-05-29T11:15:35.877Z,1013.80
2019-05-29T11:16:39.583Z,1013.80
2019-05-29T11:17:35.901Z,1013.77
2019-05-29T11:18:35.852Z,1013.79
2019-05-29T11:19:35.827Z,1013.78
2019-05-29T11:20:35.764Z,1013.81
2019-05-29T11:21:35.743Z,1013.77
2019-05-29T11:22:35.877Z,1013.78
2019-05-29T11:23:35.715Z,1013.77
2019-05-29T11:24:35.745Z,1013.78
2019-05-29T11:25:35.710Z,1013.78
2019-05-29T11:26:35.728Z,1013.79
2019-05-29T11:27:35.680Z,1013.76
2019-05-29T11:28:35.663Z,1013.72
2019-05-29T11:29:35.646Z,1013.77
2019-05-29T11:30:35.712Z,1013.74
2019-05-29T11:31:35.704Z,1013.71
2019-05-29T11:32:35.641Z,1013.74
2019-05-29T11:33:35.604Z,1013.67
2019-05-29T11:34:35.605Z,1013.74
2019-05-29T11:35:35.584Z,1013.77
2019-05-29T11:36:35.610Z,1013.74
2019-05-29T11:37:35.609Z,1013.72
2019-05-29T11:38:35.639Z,1013.69
2019-05-29T11:39:35.545Z,1013.60
2019-05-29T11:40:35.825Z,1013.61
2019-05-29T11:41:35.612Z,1013.65
2019-05-29T11:42:35.537Z,1013.73
2019-05-29T11:43:35.586Z,1013.70
2019-05-29T11:44:35.506Z,1013.73
2019-05-29T11:45:36.084Z,1013.69
2019-05-29T11:46:35.575Z,1013.72
2019-05-29T11:47:35.456Z,1013.71
2019-05-29T11:48:35.469Z,1013.68
2019-05-29T11:49:35.573Z,1013.72
2019-05-29T11:50:35.428Z,1013.70
2019-05-29T11:51:35.412Z,1013.68
2019-05-29T11:52:42.843Z,1013.68
2019-05-29T11:53:36.395Z,1013.74
2019-05-29T11:54:35.419Z,1013.68
2019-05-29T11:55:35.374Z,1013.71
2019-05-29T11:56:35.359Z,1013.70
2019-05-29T11:57:39.458Z,1013.72
2019-05-29T11:58:35.362Z,1013.70
2019-05-29T11:59:35.425Z,1013.69
2019-05-29T12:00:35.321Z,1013.66
2019-05-29T12:01:49.606Z,1013.65
2019-05-29T12:02:36.339Z,1013.64
2019-05-29T12:03:35.300Z,1013.65
2019-05-29T12:04:35.273Z,1013.61
2019-05-29T12:05:35.273Z,1013.71